createdAt,value
2017-12-12T00:00:18.575Z,3.9
2017-12-12T00:01:22.491Z,3.8
2017-12-12T00:02:26.748Z,3.9
2017-12-12T00:03:30.862Z,3.8
2017-12-12T00:04:40.156Z,3.9
2017-12-12T00:05:45.687Z,3.9
2017-12-12T00:06:49.096Z,3.8
2017-12-12T00:07:52.713Z,3.8
2017-12-12T00:08:59.105Z,3.9
2017-12-12T00:10:02.754Z,3.9
2017-12-12T00:11:06.068Z,3.9
2017-12-12T00:12:11.718Z,3.9
2017-12-12T00:13:17.520Z,3.8
2017-12-12T00:14:20.850Z,3.9
2017-12-12T00:15:28.051Z,3.9
2017-12-12T00:16:31.639Z,3.9
2017-12-12T00:17:35.693Z,3.9
2017-12-12T00:18:38.940Z,3.9
2017-12-12T00:19:42.369Z,3.9
2017-12-12T00:20:55.733Z,3.9
2017-12-12T00:22:12.542Z,3.9
2017-12-12T00:23:16.158Z,3.8
2017-12-12T00:24:21.693Z,3.8
2017-12-12T00:25:25.202Z,3.8
2017-12-12T00:26:31.985Z,3.8
2017-12-12T00:27:35.300Z,3.7
2017-12-12T00:28:38.730Z,3.7
2017-12-12T00:29:42.141Z,3.7
2017-12-12T00:30:45.600Z,3.7
2017-12-12T00:31:49.827Z,3.8
2017-12-12T00:32:55.722Z,3.7
2017-12-12T00:33:59.038Z,3.7
2017-12-12T00:35:02.520Z,3.7
2017-12-12T00:36:15.969Z,3.7
2017-12-12T00:37:25.614Z,3.7
2017-12-12T00:38:48.896Z,3.7
2017-12-12T00:40:12.178Z,3.7
2017-12-12T00:41:15.537Z,3.6
2017-12-12T00:42:38.726Z,3.7
2017-12-12T00:44:07.612Z,3.6
2017-12-12T00:45:11.049Z,3.6
2017-12-12T00:46:27.822Z,3.6
2017-12-12T00:47:33.987Z,3.6
2017-12-12T00:48:37.308Z,3.6
2017-12-12T00:49:44.885Z,3.6
2017-12-12T00:50:48.018Z,3.6
2017-12-12T00:52:11.217Z,3.6
2017-12-12T00:53:17.974Z,3.6
2017-12-12T00:54:25.514Z,3.6
2017-12-12T00:55:28.866Z,3.7
2017-12-12T00:56:32.361Z,3.7
2017-12-12T00:57:35.663Z,3.7
2017-12-12T00:58:38.922Z,3.7
2017-12-12T00:59:52.285Z,3.7
2017-12-12T01:01:14.183Z,3.7
2017-12-12T01:02:17.729Z,3.7
2017-12-12T01:03:31.082Z,3.7
2017-12-12T01:04:44.564Z,3.6
2017-12-12T01:05:47.925Z,3.7
2017-12-12T01:07:04.065Z,3.7
2017-12-12T01:08:07.448Z,3.7
2017-12-12T01:09:10.861Z,3.7
2017-12-12T01:10:14.336Z,3.6
2017-12-12T01:11:18.592Z,3.6
2017-12-12T01:12:25.649Z,3.6
2017-12-12T01:13:28.980Z,3.6
2017-12-12T01:14:32.618Z,3.6
2017-12-12T01:15:36.168Z,3.6
2017-12-12T01:16:49.938Z,3.7
2017-12-12T01:18:16.480Z,3.5
2017-12-12T01:19:19.914Z,3.5
2017-12-12T01:20:23.301Z,3.6
2017-12-12T01:21:26.675Z,3.7
2017-12-12T01:22:32.240Z,3.7
2017-12-12T01:23:53.762Z,3.7
2017-12-12T01:25:08.358Z,3.8
2017-12-12T01:26:11.825Z,3.8
2017-12-12T01:27:15.433Z,3.8
2017-12-12T01:28:19.314Z,3.7
2017-12-12T01:29:23.504Z,3.7
2017-12-12T01:30:27.061Z,3.8
2017-12-12T01:31:30.425Z,3.8
2017-12-12T01:32:33.876Z,3.7
2017-12-12T01:33:37.370Z,3.7
2017-12-12T01:34:48.378Z,3.7
2017-12-12T01:35:51.791Z,3.6
2017-12-12T01:36:55.134Z,3.7
2017-12-12T01:37:58.790Z,3.7
2017-12-12T01:39:02.908Z,3.7
2017-12-12T01:40:06.199Z,3.7
2017-12-12T01:41:10.553Z,3.6
2017-12-12T01:42:14.110Z,3.6
2017-12-12T01:43:20.782Z,3.6
2017-12-12T01:44:25.019Z,3.6
2017-12-12T01:45:32.672Z,3.6
2017-12-12T01:46:36.136Z,3.6
2017-12-12T01:47:40.560Z,3.6
2017-12-12T01:48:46.154Z,3.6
2017-12-12T01:49:49.517Z,3.6
2017-12-12T01:50:54.263Z,3.6
2017-12-12T01:51:59.612Z,3.6
2017-12-12T01:53:23.873Z,3.6
2017-12-12T01:54:37.223Z,3.6
2017-12-12T01:55:41.745Z,3.7
2017-12-12T01:56:49.088Z,3.6
2017-12-12T01:57:53.290Z,3.6
2017-12-12T01:58:56.650Z,3.5
2017-12-12T02:00:00.082Z,3.5
2017-12-12T02:01:03.719Z,3.6
2017-12-12T02:02:16.762Z,3.6
2017-12-12T02:03:20.071Z,3.7
2017-12-12T02:04:23.338Z,3.7
2017-12-12T02:05:26.762Z,3.7
2017-12-12T02:06:30.293Z,3.7
2017-12-12T02:07:38.288Z,3.7
2017-12-12T02:08:41.737Z,3.8
2017-12-12T02:09:46.100Z,3.8
2017-12-12T02:10:49.625Z,3.8
2017-12-12T02:11:53.205Z,3.8
2017-12-12T02:12:56.423Z,3.8
2017-12-12T02:14:21.698Z,3.8
2017-12-12T02:15:35.392Z,3.8
2017-12-12T02:16:38.613Z,3.8
2017-12-12T02:17:42.027Z,3.7
2017-12-12T02:18:48.932Z,3.7
2017-12-12T02:19:53.012Z,3.7
2017-12-12T02:20:56.464Z,3.6
2017-12-12T02:21:59.821Z,3.5
2017-12-12T02:23:03.262Z,3.5
2017-12-12T02:24:09.567Z,3.5
2017-12-12T02:25:12.937Z,3.5
2017-12-12T02:26:16.637Z,3.4
2017-12-12T02:27:31.711Z,3.4
2017-12-12T02:28:35.584Z,3.4
2017-12-12T02:29:43.445Z,3.3
2017-12-12T02:30:49.712Z,3.2
2017-12-12T02:31:55.539Z,3.2
2017-12-12T02:32:59.709Z,3.2
2017-12-12T02:34:03.193Z,3.2
2017-12-12T02:35:09.115Z,3.1
2017-12-12T02:36:22.419Z,3.1
2017-12-12T02:37:33.237Z,3.1
2017-12-12T02:38:42.229Z,3.1
2017-12-12T02:39:46.807Z,3
2017-12-12T02:41:08.281Z,3
2017-12-12T02:42:22.255Z,3
2017-12-12T02:43:43.221Z,2.9
2017-12-12T02:44:48.073Z,2.9
2017-12-12T02:45:52.694Z,2.9
2017-12-12T02:46:57.095Z,2.9
2017-12-12T02:48:03.538Z,2.9
2017-12-12T02:49:09.470Z,2.9
2017-12-12T02:50:13.382Z,2.9
2017-12-12T02:51:19.237Z,2.9
2017-12-12T02:52:45.251Z,2.9
2017-12-12T02:53:53.927Z,3
2017-12-12T02:55:17.996Z,2.9
2017-12-12T02:56:31.962Z,2.9
2017-12-12T02:57:39.454Z,2.9
2017-12-12T02:58:53.957Z,2.9
2017-12-12T02:59:58.451Z,2.8
2017-12-12T03:01:01.903Z,2.8
2017-12-12T03:02:05.198Z,2.8
2017-12-12T03:03:30.830Z,2.8
2017-12-12T03:04:41.826Z,2.8
2017-12-12T03:05:46.941Z,2.7
2017-12-12T03:06:52.375Z,2.7
2017-12-12T03:08:01.555Z,2.7
2017-12-12T03:09:06.155Z,2.8
2017-12-12T03:10:21.668Z,2.8
2017-12-12T03:11:27.674Z,2.8
2017-12-12T03:12:30.966Z,2.8
2017-12-12T03:13:35.983Z,2.8
2017-12-12T03:14:49.294Z,2.8
2017-12-12T03:15:57.766Z,2.8
2017-12-12T03:17:01.256Z,2.8
2017-12-12T03:18:05.435Z,2.8
2017-12-12T03:19:20.965Z,2.8
2017-12-12T03:20:28.175Z,2.8
2017-12-12T03:21:43.049Z,2.8
2017-12-12T03:22:48.463Z,2.8
2017-12-12T03:23:53.706Z,2.7
2017-12-12T03:24:57.963Z,2.7
2017-12-12T03:26:02.683Z,2.7
2017-12-12T03:27:17.117Z,2.7
2017-12-12T03:28:23.392Z,2.7
2017-12-12T03:29:27.259Z,2.7
2017-12-12T03:30:30.869Z,2.7
2017-12-12T03:31:34.031Z,2.7
2017-12-12T03:32:43.428Z,2.8
2017-12-12T03:33:48.160Z,2.8
2017-12-12T03:35:02.967Z,2.8
2017-12-12T03:36:06.292Z,2.8
2017-12-12T03:37:10.267Z,2.8
2017-12-12T03:38:27.940Z,2.9
2017-12-12T03:39:32.344Z,2.9
2017-12-12T03:40:40.999Z,2.9
2017-12-12T03:41:45.077Z,2.8
2017-12-12T03:42:52.498Z,2.9
2017-12-12T03:43:56.899Z,2.9
2017-12-12T03:45:01.076Z,2.9
2017-12-12T03:46:27.327Z,2.9
2017-12-12T03:47:33.002Z,2.9
2017-12-12T03:48:58.590Z,2.9
2017-12-12T03:50:17.647Z,2.9
2017-12-12T03:51:21.078Z,2.9
2017-12-12T03:52:27.236Z,2.9
2017-12-12T03:53:42.631Z,3
2017-12-12T03:54:56.644Z,2.9
2017-12-12T03:56:02.315Z,2.9
2017-12-12T03:57:07.236Z,2.9
2017-12-12T03:58:10.721Z,3
2017-12-12T03:59:14.713Z,3
2017-12-12T04:00:18.144Z,3
2017-12-12T04:01:26.261Z,3
2017-12-12T04:02:29.493Z,3
2017-12-12T04:03:35.022Z,3
2017-12-12T04:04:44.173Z,3
2017-12-12T04:05:48.224Z,3
2017-12-12T04:06:51.599Z,3
2017-12-12T04:07:55.002Z,3
2017-12-12T04:08:59.076Z,3
2017-12-12T04:10:05.256Z,3
2017-12-12T04:11:08.667Z,3
2017-12-12T04:12:17.698Z,3
2017-12-12T04:13:20.926Z,3.1
2017-12-12T04:14:25.637Z,3
2017-12-12T04:15:28.965Z,3
2017-12-12T04:16:33.510Z,3.1
2017-12-12T04:17:38.829Z,3.1
2017-12-12T04:18:44.636Z,3
2017-12-12T04:19:48.557Z,3
2017-12-12T04:20:54.950Z,3
2017-12-12T04:21:59.101Z,3.1
2017-12-12T04:23:07.726Z,3.1
2017-12-12T04:24:12.279Z,3.1
2017-12-12T04:25:18.288Z,3.1
2017-12-12T04:26:23.778Z,3.1
2017-12-12T04:27:29.400Z,3.1
2017-12-12T04:28:34.854Z,3.1
2017-12-12T04:29:41.403Z,3.1
2017-12-12T04:30:45.440Z,3.1
2017-12-12T04:31:48.876Z,3.2
2017-12-12T04:32:52.234Z,3.2
2017-12-12T04:33:59.106Z,3.2
2017-12-12T04:35:02.503Z,3.2
2017-12-12T04:36:05.879Z,3.2
2017-12-12T04:37:09.362Z,3.2
2017-12-12T04:38:12.991Z,3.2
2017-12-12T04:39:16.408Z,3.2
2017-12-12T04:40:19.849Z,3.3
2017-12-12T04:41:23.308Z,3.3
2017-12-12T04:42:26.977Z,3.3
2017-12-12T04:43:30.505Z,3.4
2017-12-12T04:44:37.266Z,3.3
2017-12-12T04:45:41.296Z,3.3
2017-12-12T04:46:45.217Z,3.3
2017-12-12T04:47:50.689Z,3.2
2017-12-12T04:48:55.738Z,3.2
2017-12-12T04:49:59.138Z,3.3
2017-12-12T04:51:06.359Z,3.3
2017-12-12T04:52:12.572Z,3.3
2017-12-12T04:53:18.078Z,3.3
2017-12-12T04:54:22.695Z,3.3
2017-12-12T04:55:32.537Z,3.3
2017-12-12T04:56:38.264Z,3.3
2017-12-12T04:57:43.020Z,3.3
2017-12-12T04:58:49.022Z,3.4
2017-12-12T04:59:56.015Z,3.4
2017-12-12T05:01:02.644Z,3.4
2017-12-12T05:02:09.010Z,3.4
2017-12-12T05:03:16.557Z,3.4
2017-12-12T05:04:22.464Z,3.4
2017-12-12T05:05:29.851Z,3.4
2017-12-12T05:06:41.998Z,3.4
2017-12-12T05:07:47.492Z,3.4
2017-12-12T05:08:54.883Z,3.4
2017-12-12T05:10:02.477Z,3.3
2017-12-12T05:11:09.312Z,3.4
2017-12-12T05:12:17.225Z,3.4
2017-12-12T05:13:23.964Z,3.4
2017-12-12T05:14:32.816Z,3.4
2017-12-12T05:15:39.729Z,3.4
2017-12-12T05:16:47.722Z,3.5
2017-12-12T05:17:59.702Z,3.4
2017-12-12T05:19:05.299Z,3.4
2017-12-12T05:20:13.057Z,3.5
2017-12-12T05:21:23.217Z,3.5
2017-12-12T05:22:36.481Z,3.5
2017-12-12T05:23:42.219Z,3.5
2017-12-12T05:24:50.222Z,3.5
2017-12-12T05:26:03.126Z,3.5
2017-12-12T05:27:10.683Z,3.5
2017-12-12T05:28:15.381Z,3.5
2017-12-12T05:29:31.956Z,3.5
2017-12-12T05:30:38.895Z,3.5
2017-12-12T05:31:46.693Z,3.5
2017-12-12T05:32:53.823Z,3.6
2017-12-12T05:33:58.970Z,3.6
2017-12-12T05:35:06.534Z,3.6
2017-12-12T05:36:11.074Z,3.6
2017-12-12T05:37:16.464Z,3.6
2017-12-12T05:38:24.361Z,3.6
2017-12-12T05:39:30.258Z,3.6
2017-12-12T05:40:41.324Z,3.6
2017-12-12T05:41:49.276Z,3.6
2017-12-12T05:42:55.989Z,3.6
2017-12-12T05:44:02.544Z,3.5
2017-12-12T05:45:09.767Z,3.6
2017-12-12T05:46:17.551Z,3.6
2017-12-12T05:47:22.096Z,3.6
2017-12-12T05:48:30.292Z,3.6
2017-12-12T05:49:37.463Z,3.6
2017-12-12T05:50:45.696Z,3.6
2017-12-12T05:52:00.350Z,3.6
2017-12-12T05:53:07.831Z,3.6
2017-12-12T05:54:13.922Z,3.6
2017-12-12T05:55:22.837Z,3.6
2017-12-12T05:56:27.848Z,3.5
2017-12-12T05:57:33.074Z,3.5
2017-12-12T05:58:41.743Z,3.5
2017-12-12T05:59:49.371Z,3.5
2017-12-12T06:01:01.082Z,3.5
2017-12-12T06:02:10.078Z,3.5
2017-12-12T06:03:29.290Z,3.5
2017-12-12T06:04:42.077Z,3.5
2017-12-12T06:05:52.407Z,3.5
2017-12-12T06:07:02.925Z,3.5
2017-12-12T06:08:12.865Z,3.6
2017-12-12T06:09:21.923Z,3.6
2017-12-12T06:10:32.102Z,3.6
2017-12-12T06:11:39.919Z,3.6
2017-12-12T06:12:47.539Z,3.6
2017-12-12T06:13:58.792Z,3.6
2017-12-12T06:15:17.835Z,3.6
2017-12-12T06:16:28.658Z,3.6
2017-12-12T06:17:36.152Z,3.6
2017-12-12T06:18:44.698Z,3.6
2017-12-12T06:19:55.336Z,3.7
2017-12-12T06:21:05.020Z,3.6
2017-12-12T06:22:18.819Z,3.6
2017-12-12T06:23:29.861Z,3.6
2017-12-12T06:24:39.206Z,3.6
2017-12-12T06:25:53.325Z,3.6
2017-12-12T06:27:02.961Z,3.6
2017-12-12T06:28:08.953Z,3.5
2017-12-12T06:29:20.629Z,3.6
2017-12-12T06:30:34.549Z,3.6
2017-12-12T06:31:45.016Z,3.6
2017-12-12T06:32:55.481Z,3.5
2017-12-12T06:34:04.381Z,3.5
2017-12-12T06:35:13.915Z,3.5
2017-12-12T06:36:21.771Z,3.5
2017-12-12T06:37:43.073Z,3.4
2017-12-12T06:39:00.716Z,3.4
2017-12-12T06:40:13.629Z,3.5
2017-12-12T06:41:22.938Z,3.4
2017-12-12T06:42:38.038Z,3.4
2017-12-12T06:43:45.312Z,3.3
2017-12-12T06:44:59.951Z,3.2
2017-12-12T06:46:11.691Z,3.2
2017-12-12T06:47:24.918Z,3.1
2017-12-12T06:48:39.220Z,3.1
2017-12-12T06:49:58.407Z,3.1
2017-12-12T06:51:16.588Z,3.1
2017-12-12T06:52:41.727Z,3
2017-12-12T06:53:54.208Z,3
2017-12-12T06:55:03.837Z,3
2017-12-12T06:56:09.441Z,3
2017-12-12T06:57:12.783Z,3
2017-12-12T06:58:21.748Z,3
2017-12-12T06:59:34.635Z,2.9
2017-12-12T07:00:41.864Z,3
2017-12-12T07:01:47.749Z,3
2017-12-12T07:02:58.226Z,2.9
2017-12-12T07:04:04.161Z,2.9
2017-12-12T07:05:10.425Z,2.8
2017-12-12T07:06:15.371Z,2.8
2017-12-12T07:07:18.921Z,2.8
2017-12-12T07:08:23.283Z,2.8
2017-12-12T07:09:27.716Z,2.8
2017-12-12T07:10:31.094Z,2.8
2017-12-12T07:11:37.300Z,2.8
2017-12-12T07:12:41.861Z,2.8
2017-12-12T07:13:48.852Z,2.8
2017-12-12T07:14:52.358Z,2.8
2017-12-12T07:15:56.311Z,2.7
2017-12-12T07:16:59.832Z,2.7
2017-12-12T07:18:03.942Z,2.5
2017-12-12T07:19:08.675Z,2.6
2017-12-12T07:20:12.881Z,2.6
2017-12-12T07:21:16.300Z,2.7
2017-12-12T07:22:21.839Z,2.6
2017-12-12T07:23:25.958Z,2.6
2017-12-12T07:24:33.701Z,2.7
2017-12-12T07:25:37.991Z,2.7
2017-12-12T07:26:41.513Z,2.6
2017-12-12T07:27:46.023Z,2.6
2017-12-12T07:28:49.430Z,2.6
2017-12-12T07:29:52.851Z,2.6
2017-12-12T07:30:58.529Z,2.6
2017-12-12T07:32:04.755Z,2.6
2017-12-12T07:33:08.858Z,2.5
2017-12-12T07:34:14.589Z,2.6
2017-12-12T07:35:23.144Z,2.6
2017-12-12T07:36:28.759Z,2.5
2017-12-12T07:37:33.732Z,2.5
2017-12-12T07:38:39.473Z,2.5
2017-12-12T07:39:43.751Z,2.5
2017-12-12T07:40:48.367Z,2.5
2017-12-12T07:41:57.293Z,2.4
2017-12-12T07:43:02.902Z,2.4
2017-12-12T07:44:06.331Z,2.4
2017-12-12T07:45:13.270Z,2.3
2017-12-12T07:46:25.508Z,2.4
2017-12-12T07:47:32.506Z,2.3
2017-12-12T07:48:38.167Z,2.2
2017-12-12T07:49:46.912Z,2.2
2017-12-12T07:50:54.202Z,2.3
2017-12-12T07:51:59.896Z,2.3
2017-12-12T07:53:06.539Z,2.3
2017-12-12T07:54:15.399Z,2.3
2017-12-12T07:55:20.957Z,2.4
2017-12-12T07:56:26.638Z,2.2
2017-12-12T07:57:40.504Z,2.2
2017-12-12T07:58:46.579Z,2.2
2017-12-12T07:59:55.402Z,2.2
2017-12-12T08:01:05.998Z,2.2
2017-12-12T08:02:12.356Z,2.2
2017-12-12T08:03:21.904Z,2.2
2017-12-12T08:04:30.134Z,2.1
2017-12-12T08:05:39.389Z,2.1
2017-12-12T08:06:48.583Z,2.2
2017-12-12T08:07:58.557Z,2.2
2017-12-12T08:09:08.975Z,2.3
2017-12-12T08:10:19.936Z,2.2
2017-12-12T08:11:29.205Z,2.3
2017-12-12T08:12:43.857Z,2.3
2017-12-12T08:13:55.666Z,2.2
2017-12-12T08:15:06.454Z,2.2
2017-12-12T08:16:14.568Z,2.3
2017-12-12T08:17:24.680Z,2.2
2017-12-12T08:18:40.808Z,2.2
2017-12-12T08:19:52.507Z,2.2
2017-12-12T08:21:15.131Z,2.3
2017-12-12T08:22:27.172Z,2.2
2017-12-12T08:23:38.840Z,2.2
2017-12-12T08:24:51.230Z,2.3
2017-12-12T08:26:03.111Z,2.3
2017-12-12T08:27:12.617Z,2.3
2017-12-12T08:28:27.367Z,2.3
2017-12-12T08:29:40.730Z,2.3
2017-12-12T08:30:57.583Z,2.3
2017-12-12T08:32:07.524Z,2.2
2017-12-12T08:33:33.605Z,2.2
2017-12-12T08:34:44.758Z,2.2
2017-12-12T08:36:00.323Z,2.2
2017-12-12T08:37:14.501Z,2.1
2017-12-12T08:38:26.917Z,2.1
2017-12-12T08:39:43.138Z,2.2
2017-12-12T08:40:57.776Z,2.2
2017-12-12T08:42:15.521Z,2
2017-12-12T08:43:28.408Z,2.1
2017-12-12T08:44:40.214Z,2
2017-12-12T08:45:58.088Z,2.1
2017-12-12T08:47:11.336Z,2.1
2017-12-12T08:48:18.831Z,2.2
2017-12-12T08:49:40.588Z,2.2
2017-12-12T08:50:52.832Z,2.2
2017-12-12T08:52:07.384Z,2.2
2017-12-12T08:53:15.932Z,2.2
2017-12-12T08:54:25.945Z,2.2
2017-12-12T08:55:40.308Z,2.2
2017-12-12T08:56:54.963Z,2.2
2017-12-12T08:58:15.899Z,2.2
2017-12-12T08:59:29.775Z,2.2
2017-12-12T09:00:42.747Z,2.2
2017-12-12T09:01:58.181Z,2.2
2017-12-12T09:03:19.018Z,2.3
2017-12-12T09:04:29.613Z,2.3
2017-12-12T09:05:42.569Z,2.2
2017-12-12T09:06:57.006Z,2.2
2017-12-12T09:08:13.774Z,2.2
2017-12-12T09:09:30.880Z,2.3
2017-12-12T09:10:57.118Z,2.3
2017-12-12T09:12:08.341Z,2.3
2017-12-12T09:13:24.366Z,2.3
2017-12-12T09:14:34.124Z,2.2
2017-12-12T09:15:49.237Z,2.2
2017-12-12T09:17:00.917Z,2.2
2017-12-12T09:18:21.914Z,2.2
2017-12-12T09:19:34.584Z,2.2
2017-12-12T09:20:51.963Z,2.2
2017-12-12T09:22:06.756Z,2.2
2017-12-12T09:23:33.457Z,2.3
2017-12-12T09:24:49.571Z,2.2
2017-12-12T09:26:05.856Z,2.2
2017-12-12T09:27:21.055Z,2.3
2017-12-12T09:28:38.115Z,2.2
2017-12-12T09:29:49.387Z,2.2
2017-12-12T09:31:05.855Z,2.2
2017-12-12T09:32:18.933Z,2.2
2017-12-12T09:33:32.332Z,2.2
2017-12-12T09:34:47.951Z,2.2
2017-12-12T09:36:12.727Z,2.2
2017-12-12T09:37:29.923Z,2.2
2017-12-12T09:38:48.502Z,2.3
2017-12-12T09:40:05.164Z,2.3
2017-12-12T09:41:25.611Z,2.3
2017-12-12T09:42:38.472Z,2.3
2017-12-12T09:43:54.546Z,2.3
2017-12-12T09:45:06.449Z,2.3
2017-12-12T09:46:15.898Z,2.4
2017-12-12T09:47:27.441Z,2.4
2017-12-12T09:48:45.575Z,2.5
2017-12-12T09:49:58.622Z,2.5
2017-12-12T09:51:14.131Z,2.5
2017-12-12T09:52:30.243Z,2.5
2017-12-12T09:53:37.143Z,2.5
2017-12-12T09:54:40.592Z,2.6
2017-12-12T09:55:44.702Z,2.5
2017-12-12T09:56:48.176Z,2.4
2017-12-12T09:57:52.837Z,2.5
2017-12-12T09:58:56.250Z,2.5
2017-12-12T10:00:03.370Z,2.6
2017-12-12T10:01:08.194Z,2.6
2017-12-12T10:02:11.610Z,2.5
2017-12-12T10:03:15.658Z,2.6
2017-12-12T10:04:19.118Z,2.5
2017-12-12T10:05:23.334Z,2.6
2017-12-12T10:06:26.906Z,2.5
2017-12-12T10:07:31.770Z,2.5
2017-12-12T10:08:35.795Z,2.5
2017-12-12T10:09:39.883Z,2.5
2017-12-12T10:10:47.345Z,2.5
2017-12-12T10:11:51.612Z,2.6
2017-12-12T10:12:55.894Z,2.6
2017-12-12T10:14:00.159Z,2.6
2017-12-12T10:15:05.856Z,2.7
2017-12-12T10:16:11.941Z,2.6
2017-12-12T10:17:16.480Z,2.6
2017-12-12T10:18:20.718Z,2.6
2017-12-12T10:19:25.584Z,2.6
2017-12-12T10:20:29.466Z,2.6
2017-12-12T10:21:40.389Z,2.5
2017-12-12T10:22:46.108Z,2.5
2017-12-12T10:23:50.856Z,2.5
2017-12-12T10:24:57.062Z,2.6
2017-12-12T10:26:02.167Z,2.6
2017-12-12T10:27:07.956Z,2.6
2017-12-12T10:28:14.110Z,2.6
2017-12-12T10:29:18.856Z,2.6
2017-12-12T10:30:23.209Z,2.6
2017-12-12T10:31:28.898Z,2.5
2017-12-12T10:32:43.304Z,2.5
2017-12-12T10:33:50.144Z,2.5
2017-12-12T10:34:58.552Z,2.5
2017-12-12T10:36:05.412Z,2.5
2017-12-12T10:37:11.766Z,2.6
2017-12-12T10:38:21.000Z,2.6
2017-12-12T10:39:28.911Z,2.6
2017-12-12T10:40:34.627Z,2.6
2017-12-12T10:41:41.441Z,2.6
2017-12-12T10:42:52.330Z,2.6
2017-12-12T10:44:11.162Z,2.7
2017-12-12T10:45:19.019Z,2.7
2017-12-12T10:46:28.450Z,2.7
2017-12-12T10:47:40.714Z,2.7
2017-12-12T10:48:50.295Z,2.7
2017-12-12T10:50:06.858Z,2.7
2017-12-12T10:51:16.635Z,2.7
2017-12-12T10:52:26.266Z,2.6
2017-12-12T10:53:40.157Z,2.7
2017-12-12T10:54:52.052Z,2.6
2017-12-12T10:56:17.063Z,2.7
2017-12-12T10:57:30.803Z,2.8
2017-12-12T10:58:51.970Z,2.8
2017-12-12T11:00:02.745Z,2.8
2017-12-12T11:01:17.294Z,2.8
2017-12-12T11:02:30.952Z,2.8
2017-12-12T11:03:47.392Z,2.9
2017-12-12T11:04:58.705Z,2.9
2017-12-12T11:06:13.714Z,2.9
2017-12-12T11:07:27.333Z,2.9
2017-12-12T11:08:47.988Z,2.9
2017-12-12T11:10:11.515Z,2.8
2017-12-12T11:11:27.756Z,2.9
2017-12-12T11:12:44.072Z,2.9
2017-12-12T11:13:58.959Z,2.9
2017-12-12T11:15:14.136Z,2.9
2017-12-12T11:16:26.494Z,2.9
2017-12-12T11:17:40.816Z,2.9
2017-12-12T11:19:13.338Z,2.8
2017-12-12T11:20:34.081Z,2.8
2017-12-12T11:21:59.978Z,2.9
2017-12-12T11:23:18.769Z,2.8
2017-12-12T11:24:31.258Z,2.8
2017-12-12T11:25:51.063Z,2.9
2017-12-12T11:27:06.991Z,2.8
2017-12-12T11:28:29.672Z,2.8
2017-12-12T11:29:45.701Z,2.8
2017-12-12T11:30:54.022Z,2.8
2017-12-12T11:32:18.499Z,2.8
2017-12-12T11:33:34.533Z,2.9
2017-12-12T11:35:12.754Z,2.9
2017-12-12T11:36:37.142Z,2.9
2017-12-12T11:37:52.573Z,2.9
2017-12-12T11:39:08.516Z,2.9
2017-12-12T11:40:29.548Z,2.9
2017-12-12T11:41:46.104Z,2.9
2017-12-12T11:43:06.133Z,2.9
2017-12-12T11:44:19.069Z,2.9
2017-12-12T11:45:29.199Z,2.7
2017-12-12T11:46:46.224Z,2.7
2017-12-12T11:48:13.393Z,2.8
2017-12-12T11:49:28.556Z,2.8
2017-12-12T11:50:48.059Z,2.8
2017-12-12T11:52:16.134Z,2.9
2017-12-12T11:53:31.844Z,2.9
2017-12-12T11:54:48.722Z,2.8
2017-12-12T11:56:07.135Z,2.8
2017-12-12T11:57:30.023Z,2.8
2017-12-12T11:58:46.541Z,2.9
2017-12-12T12:00:02.304Z,2.8
2017-12-12T12:01:32.583Z,2.9
2017-12-12T12:02:55.319Z,2.9
2017-12-12T12:04:09.901Z,2.9
2017-12-12T12:05:26.568Z,2.9
2017-12-12T12:06:44.237Z,2.9
2017-12-12T12:07:55.961Z,2.9
2017-12-12T12:09:13.246Z,3
2017-12-12T12:10:30.725Z,3
2017-12-12T12:11:45.312Z,3
2017-12-12T12:13:03.019Z,2.9
2017-12-12T12:14:38.720Z,2.9
2017-12-12T12:15:53.572Z,2.9
2017-12-12T12:17:06.313Z,2.9
2017-12-12T12:18:22.629Z,2.9
2017-12-12T12:19:39.063Z,2.9
2017-12-12T12:20:49.358Z,3
2017-12-12T12:22:03.795Z,2.9
2017-12-12T12:23:15.334Z,2.9
2017-12-12T12:24:29.223Z,2.9
2017-12-12T12:25:39.030Z,3
2017-12-12T12:27:01.476Z,3
2017-12-12T12:28:18.297Z,2.9
2017-12-12T12:29:33.910Z,2.9
2017-12-12T12:30:47.611Z,2.9
2017-12-12T12:31:56.685Z,2.9
2017-12-12T12:33:02.819Z,2.7
2017-12-12T12:34:08.332Z,2.7
2017-12-12T12:35:21.743Z,2.7
2017-12-12T12:36:25.902Z,2.7
2017-12-12T12:37:29.291Z,2.7
2017-12-12T12:38:41.660Z,2.7
2017-12-12T12:39:45.156Z,2.7
2017-12-12T12:40:48.676Z,2.7
2017-12-12T12:41:52.127Z,2.7
2017-12-12T12:42:56.243Z,2.8
2017-12-12T12:44:00.478Z,2.8
2017-12-12T12:45:07.976Z,2.8
2017-12-12T12:46:13.058Z,2.8
2017-12-12T12:47:16.775Z,2.8
2017-12-12T12:48:21.022Z,2.8
2017-12-12T12:49:29.524Z,2.8
2017-12-12T12:50:34.790Z,2.8
2017-12-12T12:51:38.898Z,2.8
2017-12-12T12:52:44.537Z,2.8
2017-12-12T12:53:48.669Z,2.7
2017-12-12T12:54:52.743Z,2.7
2017-12-12T12:55:57.281Z,2.6
2017-12-12T12:57:03.164Z,2.6
2017-12-12T12:58:07.832Z,2.6
2017-12-12T12:59:13.672Z,2.6
2017-12-12T13:00:22.741Z,2.6
2017-12-12T13:01:28.594Z,2.6
2017-12-12T13:02:33.566Z,2.6
2017-12-12T13:03:40.344Z,2.7
2017-12-12T13:04:44.405Z,2.7
2017-12-12T13:05:49.815Z,2.7
2017-12-12T13:06:56.213Z,2.7
2017-12-12T13:08:02.129Z,2.7
2017-12-12T13:09:06.938Z,2.6
2017-12-12T13:10:14.204Z,2.6
2017-12-12T13:11:26.685Z,2.7
2017-12-12T13:12:31.421Z,2.6
2017-12-12T13:13:39.859Z,2.7
2017-12-12T13:14:49.231Z,2.7
2017-12-12T13:15:58.335Z,2.7
2017-12-12T13:17:07.196Z,2.5
2017-12-12T13:18:15.667Z,2.6
2017-12-12T13:19:24.833Z,2.6
2017-12-12T13:20:32.510Z,2.6
2017-12-12T13:21:42.244Z,2.6
2017-12-12T13:23:01.076Z,2.5
2017-12-12T13:24:13.743Z,2.5
2017-12-12T13:25:24.594Z,2.5
2017-12-12T13:26:32.586Z,2.5
2017-12-12T13:27:41.435Z,2.5
2017-12-12T13:28:48.437Z,2.5
2017-12-12T13:29:55.602Z,2.4
2017-12-12T13:31:05.349Z,2.5
2017-12-12T13:32:21.667Z,2.4
2017-12-12T13:33:30.574Z,2.4
2017-12-12T13:34:59.625Z,2.4
2017-12-12T13:36:07.426Z,2.4
2017-12-12T13:37:14.094Z,2.4
2017-12-12T13:38:23.383Z,2.4
2017-12-12T13:39:32.528Z,2.4
2017-12-12T13:40:41.496Z,2.4
2017-12-12T13:41:55.541Z,2.4
2017-12-12T13:43:10.013Z,2.4
2017-12-12T13:44:15.718Z,2.3
2017-12-12T13:45:47.905Z,2.4
2017-12-12T13:47:06.624Z,2.3
2017-12-12T13:48:22.022Z,2.3
2017-12-12T13:49:37.372Z,2.3
2017-12-12T13:50:51.936Z,2.3
2017-12-12T13:52:01.015Z,2.4
2017-12-12T13:53:18.850Z,2.3
2017-12-12T13:54:42.354Z,2.3
2017-12-12T13:55:48.710Z,2.4
2017-12-12T13:57:00.025Z,2.3
2017-12-12T13:58:11.969Z,2.4
2017-12-12T13:59:39.598Z,2.3
2017-12-12T14:00:54.268Z,2.3
2017-12-12T14:02:08.494Z,2.3
2017-12-12T14:03:24.490Z,2.4
2017-12-12T14:04:41.689Z,2.4
2017-12-12T14:05:54.155Z,2.4
2017-12-12T14:07:07.530Z,2.4
2017-12-12T14:08:19.667Z,2.4
2017-12-12T14:09:30.294Z,2.4
2017-12-12T14:10:36.341Z,2.4
2017-12-12T14:11:58.853Z,2.4
2017-12-12T14:13:09.911Z,2.4
2017-12-12T14:14:23.437Z,2.4
2017-12-12T14:15:34.331Z,2.4
2017-12-12T14:16:42.692Z,2.4
2017-12-12T14:17:56.008Z,2.4
2017-12-12T14:19:07.817Z,2.4
2017-12-12T14:20:16.163Z,2.4
2017-12-12T14:21:47.570Z,2.4
2017-12-12T14:22:58.118Z,2.4
2017-12-12T14:24:19.580Z,2.4
2017-12-12T14:25:34.553Z,2.4
2017-12-12T14:26:46.926Z,2.4
2017-12-12T14:28:01.859Z,2.4
2017-12-12T14:29:11.876Z,2.5
2017-12-12T14:30:27.549Z,2.4
2017-12-12T14:31:43.254Z,2.4
2017-12-12T14:33:00.858Z,2.4
2017-12-12T14:34:10.640Z,2.4
2017-12-12T14:35:26.759Z,2.4
2017-12-12T14:36:42.105Z,2.4
2017-12-12T14:37:47.359Z,2.4
2017-12-12T14:38:52.827Z,2.4
2017-12-12T14:40:07.330Z,2.4
2017-12-12T14:41:14.215Z,2.3
2017-12-12T14:42:23.612Z,2.4
2017-12-12T14:43:28.865Z,2.4
2017-12-12T14:44:35.646Z,2.4
2017-12-12T14:45:46.716Z,2.4
2017-12-12T14:46:54.335Z,2.4
2017-12-12T14:48:10.319Z,2.3
2017-12-12T14:49:16.492Z,2.4
2017-12-12T14:50:20.677Z,2.4
2017-12-12T14:51:25.251Z,2.4
2017-12-12T14:52:28.746Z,2.4
2017-12-12T14:53:33.454Z,2.4
2017-12-12T14:54:45.043Z,2.4
2017-12-12T14:55:48.481Z,2.4
2017-12-12T14:56:52.565Z,2.4
2017-12-12T14:57:58.734Z,2.3
2017-12-12T14:59:08.238Z,2.3
2017-12-12T15:00:12.658Z,2.3
2017-12-12T15:01:18.777Z,2.3
2017-12-12T15:02:22.805Z,2.3
2017-12-12T15:03:27.117Z,2.4
2017-12-12T15:04:30.376Z,2.4
2017-12-12T15:05:34.494Z,2.3
2017-12-12T15:06:38.881Z,2.4
2017-12-12T15:07:42.496Z,2.3
2017-12-12T15:08:48.387Z,2.2
2017-12-12T15:09:57.151Z,2.2
2017-12-12T15:11:00.956Z,2.2
2017-12-12T15:12:04.546Z,2.2
2017-12-12T15:13:07.981Z,2.2
2017-12-12T15:14:11.368Z,2.2
2017-12-12T15:15:17.638Z,2.2
2017-12-12T15:16:22.993Z,2.2
2017-12-12T15:17:26.999Z,2.2
2017-12-12T15:18:30.866Z,2.2
2017-12-12T15:19:35.824Z,2.2
2017-12-12T15:20:43.519Z,2.1
2017-12-12T15:21:47.465Z,2.1
2017-12-12T15:22:53.106Z,2.2
2017-12-12T15:23:58.654Z,2.2
2017-12-12T15:25:03.512Z,2.2
2017-12-12T15:26:09.775Z,2.2
2017-12-12T15:27:14.322Z,2.2
2017-12-12T15:28:21.179Z,2.2
2017-12-12T15:29:26.450Z,2.2
2017-12-12T15:30:32.603Z,2.2
2017-12-12T15:31:48.204Z,2.2
2017-12-12T15:32:53.483Z,2.2
2017-12-12T15:34:02.221Z,2.2
2017-12-12T15:35:09.233Z,2.2
2017-12-12T15:36:16.780Z,2.2
2017-12-12T15:37:22.318Z,2.2
2017-12-12T15:38:30.775Z,2.2
2017-12-12T15:39:39.076Z,2.1
2017-12-12T15:40:44.018Z,2.1
2017-12-12T15:42:00.916Z,2.1
2017-12-12T15:43:10.497Z,2.1
2017-12-12T15:44:14.412Z,2.1
2017-12-12T15:45:21.607Z,2.1
2017-12-12T15:46:25.616Z,2.1
2017-12-12T15:47:30.694Z,2.1
2017-12-12T15:48:36.294Z,2.1
2017-12-12T15:49:39.684Z,2.1
2017-12-12T15:50:43.221Z,2.1
2017-12-12T15:51:47.965Z,2
2017-12-12T15:52:53.427Z,2
2017-12-12T15:54:01.436Z,2
2017-12-12T15:55:04.679Z,2
2017-12-12T15:56:08.213Z,2
2017-12-12T15:57:11.765Z,2
2017-12-12T15:58:15.479Z,2
2017-12-12T15:59:18.913Z,2